createdAt,value
2022-08-26T00:00:03.536Z,69.29
2022-08-26T00:01:03.754Z,69.96
2022-08-26T00:02:01.882Z,69.26
2022-08-26T00:03:01.804Z,69.16
2022-08-26T00:04:02.005Z,69.26
2022-08-26T00:05:01.977Z,69.49
2022-08-26T00:06:01.817Z,69.29
2022-08-26T00:07:02.406Z,69.99
2022-08-26T00:08:02.875Z,71.09
2022-08-26T00:09:02.713Z,71.89
2022-08-26T00:10:02.725Z,71.69
2022-08-26T00:11:02.486Z,73.69
2022-08-26T00:12:02.247Z,73.89
2022-08-26T00:13:02.489Z,74.19
2022-08-26T00:14:02.065Z,73.39
2022-08-26T00:15:02.682Z,71.69
2022-08-26T00:16:02.147Z,71.49
2022-08-26T00:17:02.356Z,73.19
2022-08-26T00:18:02.682Z,72.39
2022-08-26T00:19:02.623Z,71.49
2022-08-26T00:20:02.368Z,71.99
2022-08-26T00:21:06.268Z,73.69
2022-08-26T00:22:02.770Z,72.19
2022-08-26T00:23:02.701Z,70.99
2022-08-26T00:24:03.082Z,70.09
2022-08-26T00:25:03.111Z,69.99
2022-08-26T00:26:03.056Z,70.26
2022-08-26T00:27:01.851Z,70.76
2022-08-26T00:28:02.455Z,71.19
2022-08-26T00:29:02.163Z,70.79
2022-08-26T00:30:02.218Z,70.59
2022-08-26T00:31:02.148Z,70.09
2022-08-26T00:32:02.152Z,71.09
2022-08-26T00:33:02.077Z,71.39
2022-08-26T00:34:02.244Z,70.69
2022-08-26T00:35:02.123Z,70.09
2022-08-26T00:36:02.167Z,70.09
2022-08-26T00:37:02.185Z,70.39
2022-08-26T00:38:02.021Z,69.89
2022-08-26T00:39:02.057Z,70.59
2022-08-26T00:40:05.364Z,71.09
2022-08-26T00:41:02.337Z,69.59
2022-08-26T00:42:02.115Z,69.89
2022-08-26T00:43:02.232Z,70.09
2022-08-26T00:44:02.467Z,69.49
2022-08-26T00:45:02.678Z,70.19
2022-08-26T00:46:02.572Z,69.19
2022-08-26T00:47:02.813Z,68.79
2022-08-26T00:48:02.875Z,68.49
2022-08-26T00:49:02.875Z,68.49
2022-08-26T00:50:02.390Z,68.29
2022-08-26T00:51:02.632Z,68.19
2022-08-26T00:52:02.318Z,68.09
2022-08-26T00:53:02.284Z,68.19
2022-08-26T00:54:02.265Z,69.39
2022-08-26T00:55:02.568Z,69.19
2022-08-26T00:56:02.417Z,69.02
2022-08-26T00:57:02.960Z,69.02
2022-08-26T00:58:02.973Z,69.43
2022-08-26T00:59:02.791Z,69.32
2022-08-26T01:00:02.852Z,68.82
2022-08-26T01:01:02.980Z,68.82
2022-08-26T01:02:03.226Z,69.02
2022-08-26T01:03:02.536Z,69.02
2022-08-26T01:04:02.478Z,68.62
2022-08-26T01:05:03.218Z,68.93
2022-08-26T01:06:03.031Z,68.82
2022-08-26T01:07:02.133Z,69.02
2022-08-26T01:08:02.242Z,69.32
2022-08-26T01:09:01.702Z,68.93
2022-08-26T01:10:01.706Z,69.43
2022-08-26T01:11:02.320Z,70.43
2022-08-26T01:12:02.232Z,70.46
2022-08-26T01:13:01.937Z,70.26
2022-08-26T01:14:01.894Z,69.56
2022-08-26T01:15:02.425Z,69.26
2022-08-26T01:16:02.193Z,69.36
2022-08-26T01:17:02.835Z,69.26
2022-08-26T01:18:03.032Z,68.96
2022-08-26T01:19:02.992Z,69.06
2022-08-26T01:20:03.124Z,69.36
2022-08-26T01:21:02.832Z,69.36
2022-08-26T01:22:02.914Z,69.26
2022-08-26T01:23:03.317Z,70.56
2022-08-26T01:24:02.857Z,70.86
2022-08-26T01:25:03.606Z,70.36
2022-08-26T01:26:03.096Z,69.96
2022-08-26T01:27:02.901Z,70.36
2022-08-26T01:28:02.891Z,70.50
2022-08-26T01:29:02.682Z,70.19
2022-08-26T01:30:03.323Z,69.79
2022-08-26T01:31:03.277Z,69.79
2022-08-26T01:32:01.878Z,70.39
2022-08-26T01:33:02.479Z,71.39
2022-08-26T01:34:02.265Z,70.59
2022-08-26T01:35:02.187Z,69.99
2022-08-26T01:36:02.109Z,69.79
2022-08-26T01:37:02.725Z,71.00
2022-08-26T01:38:02.631Z,71.30
2022-08-26T01:39:02.655Z,70.39
2022-08-26T01:40:02.782Z,70.89
2022-08-26T01:41:02.748Z,70.89
2022-08-26T01:42:03.139Z,70.19
2022-08-26T01:43:01.952Z,69.99
2022-08-26T01:44:02.636Z,69.99
2022-08-26T01:45:02.550Z,70.59
2022-08-26T01:46:02.336Z,71.69
2022-08-26T01:47:02.841Z,72.19
2022-08-26T01:48:03.035Z,71.59
2022-08-26T01:49:02.886Z,71.19
2022-08-26T01:50:03.093Z,70.73
2022-08-26T01:51:02.860Z,70.62
2022-08-26T01:52:03.087Z,70.32
2022-08-26T01:53:02.760Z,70.62
2022-08-26T01:54:03.175Z,70.43
2022-08-26T01:55:03.176Z,70.23
2022-08-26T01:56:02.842Z,70.93
2022-08-26T01:57:02.630Z,70.93
2022-08-26T01:58:02.321Z,73.03
2022-08-26T01:59:02.303Z,71.63
2022-08-26T02:00:02.640Z,71.33
2022-08-26T02:01:02.629Z,71.73
2022-08-26T02:02:02.663Z,71.33
2022-08-26T02:03:02.728Z,71.23
2022-08-26T02:04:02.696Z,71.73
2022-08-26T02:05:02.639Z,71.12
2022-08-26T02:06:02.994Z,71.56
2022-08-26T02:07:03.616Z,71.56
2022-08-26T02:08:03.185Z,70.96
2022-08-26T02:09:03.742Z,70.86
2022-08-26T02:10:03.414Z,73.07
2022-08-26T02:11:03.332Z,73.03
2022-08-26T02:12:03.850Z,73.47
2022-08-26T02:13:03.852Z,72.56
2022-08-26T02:14:03.713Z,71.96
2022-08-26T02:15:05.693Z,71.66
2022-08-26T02:16:03.569Z,71.46
2022-08-26T02:17:03.165Z,71.77
2022-08-26T02:18:03.017Z,72.27
2022-08-26T02:19:02.771Z,71.96
2022-08-26T02:20:02.607Z,72.36
2022-08-26T02:21:03.226Z,72.16
2022-08-26T02:22:03.598Z,71.96
2022-08-26T02:23:03.695Z,72.56
2022-08-26T02:24:03.559Z,72.27
2022-08-26T02:25:03.565Z,72.16
2022-08-26T02:26:03.472Z,71.96
2022-08-26T02:27:04.103Z,72.06
2022-08-26T02:28:04.160Z,73.47
2022-08-26T02:29:04.046Z,72.66
2022-08-26T02:30:03.957Z,72.27
2022-08-26T02:31:03.870Z,72.66
2022-08-26T02:32:02.919Z,72.16
2022-08-26T02:33:03.401Z,72.36
2022-08-26T02:34:03.258Z,72.56
2022-08-26T02:35:02.925Z,71.96
2022-08-26T02:36:03.113Z,71.90
2022-08-26T02:37:03.114Z,72.40
2022-08-26T02:38:03.189Z,72.20
2022-08-26T02:39:03.309Z,72.09
2022-08-26T02:40:03.422Z,71.90
2022-08-26T02:41:03.410Z,72.09
2022-08-26T02:42:03.872Z,72.00
2022-08-26T02:43:03.550Z,73.10
2022-08-26T02:44:04.034Z,72.60
2022-08-26T02:45:03.940Z,72.50
2022-08-26T02:46:04.057Z,72.30
2022-08-26T02:47:03.606Z,72.20
2022-08-26T02:48:04.193Z,72.00
2022-08-26T02:49:03.942Z,72.50
2022-08-26T02:50:03.930Z,74.01
2022-08-26T02:51:03.875Z,72.80
2022-08-26T02:52:02.882Z,72.60
2022-08-26T02:53:03.516Z,73.00
2022-08-26T02:54:03.703Z,72.80
2022-08-26T02:55:03.193Z,74.60
2022-08-26T02:56:03.159Z,74.20
2022-08-26T02:57:03.566Z,75.41
2022-08-26T02:58:03.608Z,74.51
2022-08-26T02:59:03.580Z,80.92
2022-08-26T03:00:03.333Z,77.51
2022-08-26T03:01:04.971Z,76.41
2022-08-26T03:02:02.902Z,75.41
2022-08-26T03:03:02.793Z,75.71
2022-08-26T03:04:02.529Z,74.80
2022-08-26T03:05:02.540Z,74.20
2022-08-26T03:06:02.588Z,74.51
2022-08-26T03:07:02.830Z,74.40
2022-08-26T03:08:02.726Z,73.90
2022-08-26T03:09:02.690Z,74.01
2022-08-26T03:10:08.247Z,74.64
2022-08-26T03:11:02.572Z,74.71
2022-08-26T03:12:02.709Z,74.04
2022-08-26T03:13:05.056Z,74.34
2022-08-26T03:14:03.668Z,74.34
2022-08-26T03:15:02.860Z,74.71
2022-08-26T03:16:03.075Z,74.04
2022-08-26T03:17:02.486Z,74.01
2022-08-26T03:18:02.954Z,73.90
2022-08-26T03:19:02.675Z,74.30
2022-08-26T03:20:02.766Z,73.90
2022-08-26T03:21:02.834Z,74.01
2022-08-26T03:22:02.781Z,74.01
2022-08-26T03:23:02.706Z,73.50
2022-08-26T03:24:03.105Z,73.70
2022-08-26T03:25:02.957Z,74.10
2022-08-26T03:26:03.136Z,74.30
2022-08-26T03:27:05.930Z,74.51
2022-08-26T03:28:03.117Z,75.01
2022-08-26T03:29:03.332Z,74.10
2022-08-26T03:30:03.316Z,73.60
2022-08-26T03:31:03.636Z,73.77
2022-08-26T03:32:03.376Z,74.07
2022-08-26T03:33:03.348Z,73.67
2022-08-26T03:34:03.688Z,73.27
2022-08-26T03:35:03.529Z,72.97
2022-08-26T03:36:03.541Z,73.07
2022-08-26T03:37:03.318Z,74.67
2022-08-26T03:38:03.302Z,76.07
2022-08-26T03:39:03.195Z,75.87
2022-08-26T03:40:03.243Z,75.47
2022-08-26T03:41:03.124Z,78.94
2022-08-26T03:42:03.143Z,79.14
2022-08-26T03:43:03.196Z,78.24
2022-08-26T03:44:03.172Z,80.44
2022-08-26T03:45:03.341Z,79.94
2022-08-26T03:46:03.546Z,79.44
2022-08-26T03:47:02.656Z,80.54
2022-08-26T03:48:02.565Z,80.71
2022-08-26T03:49:02.488Z,79.60
2022-08-26T03:50:02.595Z,80.30
2022-08-26T03:51:03.168Z,80.00
2022-08-26T03:52:03.025Z,79.60
2022-08-26T03:53:03.226Z,79.10
2022-08-26T03:54:02.722Z,79.36
2022-08-26T03:55:02.778Z,79.36
2022-08-26T03:56:02.996Z,80.87
2022-08-26T03:57:03.065Z,80.77
2022-08-26T03:58:03.102Z,79.86
2022-08-26T03:59:03.270Z,79.67
2022-08-26T04:00:03.129Z,79.53
2022-08-26T04:01:02.773Z,79.33
2022-08-26T04:02:02.377Z,79.53
2022-08-26T04:03:02.539Z,80.13
2022-08-26T04:04:02.408Z,80.53
2022-08-26T04:05:02.135Z,79.43
2022-08-26T04:06:02.049Z,79.03
2022-08-26T04:07:02.620Z,79.49
2022-08-26T04:08:02.365Z,79.09
2022-08-26T04:09:02.626Z,78.59
2022-08-26T04:10:02.725Z,79.19
2022-08-26T04:11:02.813Z,81.19
2022-08-26T04:12:02.803Z,82.69
2022-08-26T04:13:02.416Z,82.89
2022-08-26T04:14:03.012Z,81.65
2022-08-26T04:15:03.042Z,82.15
2022-08-26T04:16:02.686Z,84.05
2022-08-26T04:17:02.181Z,83.65
2022-08-26T04:18:02.577Z,84.15
2022-08-26T04:19:02.625Z,85.35
2022-08-26T04:20:02.357Z,84.21
2022-08-26T04:21:02.505Z,83.81
2022-08-26T04:22:02.716Z,83.61
2022-08-26T04:23:02.908Z,84.11
2022-08-26T04:24:03.604Z,83.11
2022-08-26T04:25:02.994Z,83.51
2022-08-26T04:26:03.127Z,84.81
2022-08-26T04:27:02.709Z,84.01
2022-08-26T04:28:02.275Z,83.07
2022-08-26T04:29:02.719Z,82.57
2022-08-26T04:30:02.606Z,82.97
2022-08-26T04:31:02.239Z,84.07
2022-08-26T04:32:02.917Z,83.17
2022-08-26T04:33:03.221Z,82.17
2022-08-26T04:34:02.779Z,83.17
2022-08-26T04:35:03.173Z,82.57
2022-08-26T04:36:02.589Z,83.03
2022-08-26T04:37:03.190Z,84.63
2022-08-26T04:38:03.432Z,84.93
2022-08-26T04:39:03.139Z,84.33
2022-08-26T04:40:03.554Z,83.23
2022-08-26T04:41:03.336Z,84.93
2022-08-26T04:42:03.622Z,85.03
2022-08-26T04:43:03.216Z,84.73
2022-08-26T04:44:03.214Z,84.83
2022-08-26T04:45:05.683Z,85.93
2022-08-26T04:46:03.579Z,85.72
2022-08-26T04:47:03.038Z,84.73
2022-08-26T04:48:02.909Z,84.43
2022-08-26T04:49:02.801Z,84.63
2022-08-26T04:50:03.209Z,84.39
2022-08-26T04:51:03.007Z,84.59
2022-08-26T04:52:02.734Z,84.69
2022-08-26T04:53:02.315Z,85.28
2022-08-26T04:54:02.279Z,84.99
2022-08-26T04:55:02.472Z,85.09
2022-08-26T04:56:02.505Z,85.39
2022-08-26T04:57:03.342Z,85.09
2022-08-26T04:58:02.820Z,85.09
2022-08-26T04:59:02.894Z,84.69
2022-08-26T05:00:03.152Z,84.69
2022-08-26T05:01:03.055Z,84.99
2022-08-26T05:02:02.976Z,84.79
2022-08-26T05:03:02.519Z,84.29
2022-08-26T05:04:03.029Z,84.29
2022-08-26T05:05:02.657Z,83.89
2022-08-26T05:06:02.550Z,84.25
2022-08-26T05:07:02.673Z,82.45
2022-08-26T05:08:02.126Z,82.26
2022-08-26T05:09:02.217Z,81.56
2022-08-26T05:10:02.644Z,81.96
2022-08-26T05:11:02.412Z,81.36
2022-08-26T05:12:02.645Z,81.26
2022-08-26T05:13:02.999Z,82.51
2022-08-26T05:14:03.009Z,82.42
2022-08-26T05:15:02.646Z,82.42
2022-08-26T05:16:03.088Z,81.82
2022-08-26T05:17:02.812Z,82.21
2022-08-26T05:18:02.346Z,82.42
2022-08-26T05:19:02.736Z,82.81
2022-08-26T05:20:02.397Z,83.61
2022-08-26T05:21:02.340Z,82.92
2022-08-26T05:22:02.459Z,82.51
2022-08-26T05:23:02.899Z,82.42
2022-08-26T05:24:02.831Z,82.51
2022-08-26T05:25:02.789Z,82.62
2022-08-26T05:26:02.404Z,83.31
2022-08-26T05:27:03.125Z,83.31
2022-08-26T05:28:02.695Z,82.81
2022-08-26T05:29:02.741Z,82.12
2022-08-26T05:30:03.136Z,83.01
2022-08-26T05:31:02.701Z,82.81
2022-08-26T05:32:02.912Z,82.71
2022-08-26T05:33:03.185Z,83.01
2022-08-26T05:34:03.722Z,82.92
2022-08-26T05:35:03.099Z,82.67
2022-08-26T05:36:02.706Z,82.57
2022-08-26T05:37:02.135Z,82.78
2022-08-26T05:38:02.224Z,82.48
2022-08-26T05:39:02.337Z,82.18
2022-08-26T05:40:02.621Z,82.97
2022-08-26T05:41:02.365Z,83.07
2022-08-26T05:42:02.895Z,82.97
2022-08-26T05:43:02.592Z,82.57
2022-08-26T05:44:02.811Z,83.07
2022-08-26T05:45:02.815Z,82.78
2022-08-26T05:46:03.127Z,82.97
2022-08-26T05:47:02.481Z,82.87
2022-08-26T05:48:02.677Z,82.48
2022-08-26T05:49:02.544Z,81.68
2022-08-26T05:50:02.750Z,81.77
2022-08-26T05:51:02.669Z,82.07
2022-08-26T05:52:03.260Z,82.37
2022-08-26T05:53:02.817Z,82.67
2022-08-26T05:54:02.704Z,82.37
2022-08-26T05:55:03.362Z,82.48
2022-08-26T05:56:03.140Z,82.18
2022-08-26T05:57:02.418Z,82.48
2022-08-26T05:58:02.894Z,81.98
2022-08-26T05:59:02.911Z,82.18
2022-08-26T06:00:02.343Z,81.68
2022-08-26T06:01:02.942Z,81.88
2022-08-26T06:02:03.115Z,81.24
2022-08-26T06:03:03.397Z,81.14
2022-08-26T06:04:03.069Z,80.74
2022-08-26T06:05:02.756Z,81.54
2022-08-26T06:06:02.759Z,81.74
2022-08-26T06:07:03.375Z,81.24
2022-08-26T06:08:03.070Z,80.94
2022-08-26T06:09:03.078Z,81.14
2022-08-26T06:10:28.691Z,80.84
2022-08-26T06:11:02.938Z,80.44
2022-08-26T06:12:03.159Z,81.54
2022-08-26T06:13:11.897Z,81.44
2022-08-26T06:14:03.728Z,81.64
2022-08-26T06:15:04.122Z,81.44
2022-08-26T06:16:03.404Z,80.94
2022-08-26T06:17:02.339Z,80.44
2022-08-26T06:18:02.435Z,79.94
2022-08-26T06:19:02.612Z,81.01
2022-08-26T06:20:02.373Z,80.71
2022-08-26T06:21:03.016Z,80.71
2022-08-26T06:22:02.668Z,80.60
2022-08-26T06:23:02.688Z,80.90
2022-08-26T06:24:02.767Z,81.20
2022-08-26T06:25:02.808Z,80.90
2022-08-26T06:26:03.202Z,80.51
2022-08-26T06:27:03.453Z,80.51
2022-08-26T06:28:03.176Z,81.01
2022-08-26T06:29:02.902Z,81.10
2022-08-26T06:30:03.455Z,81.01
2022-08-26T06:31:03.072Z,81.14
2022-08-26T06:32:03.614Z,81.34
2022-08-26T06:33:03.475Z,80.94
2022-08-26T06:34:07.254Z,80.51
2022-08-26T06:35:03.456Z,80.21
2022-08-26T06:36:03.638Z,80.00
2022-08-26T06:37:03.524Z,80.00
2022-08-26T06:38:03.752Z,80.11
2022-08-26T06:39:03.367Z,80.41
2022-08-26T06:40:03.880Z,80.51
2022-08-26T06:41:03.703Z,80.51
2022-08-26T06:42:03.078Z,80.71
2022-08-26T06:43:03.050Z,80.71
2022-08-26T06:44:03.095Z,81.01
2022-08-26T06:45:02.568Z,80.90
2022-08-26T06:46:02.809Z,80.71
2022-08-26T06:47:03.434Z,80.80
2022-08-26T06:48:03.656Z,80.71
2022-08-26T06:49:03.254Z,80.51
2022-08-26T06:50:03.393Z,80.30
2022-08-26T06:51:03.539Z,80.21
2022-08-26T06:52:02.623Z,80.11
2022-08-26T06:53:03.172Z,80.00
2022-08-26T06:54:03.067Z,80.21
2022-08-26T06:55:02.780Z,79.91
2022-08-26T06:56:03.177Z,80.00
2022-08-26T06:57:03.219Z,80.07
2022-08-26T06:58:03.435Z,80.27
2022-08-26T06:59:03.443Z,79.37
2022-08-26T07:00:02.993Z,79.47
2022-08-26T07:01:11.341Z,79.57
2022-08-26T07:02:02.586Z,79.87
2022-08-26T07:03:02.625Z,79.87
2022-08-26T07:04:02.503Z,79.47
2022-08-26T07:05:02.684Z,79.37
2022-08-26T07:06:02.605Z,79.67
2022-08-26T07:07:02.416Z,79.67
2022-08-26T07:08:02.334Z,79.57
2022-08-26T07:09:03.370Z,79.17
2022-08-26T07:10:02.156Z,79.67
2022-08-26T07:11:02.566Z,79.27
2022-08-26T07:12:02.799Z,78.97
2022-08-26T07:13:02.897Z,78.88
2022-08-26T07:14:02.651Z,78.88
2022-08-26T07:15:02.553Z,79.03
2022-08-26T07:16:02.912Z,78.64
2022-08-26T07:17:02.525Z,78.54
2022-08-26T07:18:02.247Z,78.54
2022-08-26T07:19:03.284Z,78.34
2022-08-26T07:20:02.285Z,78.64
2022-08-26T07:21:02.397Z,79.43
2022-08-26T07:22:03.352Z,79.33
2022-08-26T07:23:03.144Z,79.14
2022-08-26T07:24:03.090Z,78.74
2022-08-26T07:25:02.792Z,78.34
2022-08-26T07:26:02.805Z,78.64
2022-08-26T07:27:02.811Z,78.24
2022-08-26T07:28:02.582Z,78.74
2022-08-26T07:29:02.474Z,78.74
2022-08-26T07:30:02.859Z,78.64
2022-08-26T07:31:02.793Z,79.14
2022-08-26T07:32:03.264Z,79.24
2022-08-26T07:33:02.765Z,78.94
2022-08-26T07:34:03.112Z,78.84
2022-08-26T07:35:03.122Z,78.84
2022-08-26T07:36:02.783Z,78.74
2022-08-26T07:37:02.968Z,78.64
2022-08-26T07:38:03.027Z,78.74
2022-08-26T07:39:02.997Z,78.64
2022-08-26T07:40:02.971Z,78.74
2022-08-26T07:41:02.383Z,78.64
2022-08-26T07:42:07.759Z,78.64
2022-08-26T07:43:02.932Z,78.84
2022-08-26T07:44:02.528Z,78.44
2022-08-26T07:45:02.528Z,78.44
2022-08-26T07:46:02.830Z,78.34
2022-08-26T07:47:03.331Z,78.64
2022-08-26T07:48:03.983Z,78.44
2022-08-26T07:49:03.147Z,78.84
2022-08-26T07:50:03.546Z,78.44
2022-08-26T07:51:03.514Z,78.14
2022-08-26T07:52:03.420Z,78.40
2022-08-26T07:53:03.393Z,78.11
2022-08-26T07:54:03.337Z,77.81
2022-08-26T07:55:03.437Z,78.11
2022-08-26T07:56:02.988Z,78.11
2022-08-26T07:57:02.176Z,77.81
2022-08-26T07:58:02.379Z,77.70
2022-08-26T07:59:02.547Z,77.81
2022-08-26T08:00:02.534Z,77.70
2022-08-26T08:01:02.361Z,77.61
2022-08-26T08:02:02.685Z,77.70
2022-08-26T08:03:02.537Z,77.81
2022-08-26T08:04:02.588Z,77.81
2022-08-26T08:05:02.932Z,77.70
2022-08-26T08:06:02.500Z,77.81
2022-08-26T08:07:02.764Z,78.00
2022-08-26T08:08:26.264Z,77.81
2022-08-26T08:09:03.222Z,77.81
2022-08-26T08:10:05.576Z,78.44
2022-08-26T08:11:03.159Z,78.50
2022-08-26T08:12:03.084Z,77.91
2022-08-26T08:13:03.373Z,77.81
2022-08-26T08:14:03.303Z,77.81
2022-08-26T08:15:03.418Z,78.00
2022-08-26T08:16:03.195Z,78.30
2022-08-26T08:17:03.149Z,78.11
2022-08-26T08:18:02.942Z,77.70
2022-08-26T08:19:02.940Z,77.61
2022-08-26T08:20:02.839Z,77.41
2022-08-26T08:21:21.264Z,77.31
2022-08-26T08:22:02.899Z,77.31
2022-08-26T08:23:03.214Z,77.77
2022-08-26T08:24:03.402Z,77.27
2022-08-26T08:25:08.046Z,77.17
2022-08-26T08:26:02.944Z,77.17
2022-08-26T08:27:02.682Z,77.77
2022-08-26T08:28:02.570Z,77.67
2022-08-26T08:29:02.953Z,77.08
2022-08-26T08:30:02.745Z,76.78
2022-08-26T08:31:02.806Z,77.31
2022-08-26T08:32:03.214Z,77.31
2022-08-26T08:33:03.094Z,77.70
2022-08-26T08:34:03.413Z,78.11
2022-08-26T08:35:10.945Z,77.70
2022-08-26T08:36:03.541Z,77.81
2022-08-26T08:37:04.405Z,78.00
2022-08-26T08:38:04.281Z,78.11
2022-08-26T08:39:03.172Z,77.57
2022-08-26T08:40:03.890Z,77.67
2022-08-26T08:41:05.528Z,77.08
2022-08-26T08:42:03.012Z,77.37
2022-08-26T08:43:03.097Z,77.37
2022-08-26T08:44:03.186Z,77.08
2022-08-26T08:45:02.793Z,76.25
2022-08-26T08:46:03.170Z,77.08
2022-08-26T08:47:03.167Z,77.17
2022-08-26T08:48:03.528Z,77.14
2022-08-26T08:49:03.004Z,76.84
2022-08-26T08:50:03.688Z,77.14
2022-08-26T08:51:03.551Z,77.04
2022-08-26T08:52:04.231Z,76.14
2022-08-26T08:53:03.663Z,76.04
2022-08-26T08:54:03.717Z,76.34
2022-08-26T08:55:04.190Z,76.04
2022-08-26T08:56:04.083Z,76.44
2022-08-26T08:57:03.051Z,76.04
2022-08-26T08:58:03.251Z,76.14
2022-08-26T08:59:02.871Z,75.65
2022-08-26T09:00:03.354Z,76.54
2022-08-26T09:01:03.122Z,76.25
2022-08-26T09:02:02.484Z,76.40
2022-08-26T09:03:02.595Z,76.50
2022-08-26T09:04:02.281Z,76.40
2022-08-26T09:05:02.657Z,76.40
2022-08-26T09:06:02.290Z,76.21
2022-08-26T09:07:02.720Z,76.01
2022-08-26T09:08:02.682Z,75.71
2022-08-26T09:09:02.509Z,76.21
2022-08-26T09:10:02.643Z,76.10
2022-08-26T09:11:02.799Z,76.07
2022-08-26T09:12:01.929Z,75.38
2022-08-26T09:13:02.471Z,75.18
2022-08-26T09:14:02.325Z,75.38
2022-08-26T09:15:02.488Z,74.88
2022-08-26T09:16:01.833Z,74.88
2022-08-26T09:17:02.513Z,75.18
2022-08-26T09:18:02.842Z,74.19
2022-08-26T09:19:02.153Z,74.68
2022-08-26T09:20:02.284Z,74.98
2022-08-26T09:21:02.474Z,74.48
2022-08-26T09:22:06.966Z,74.78
2022-08-26T09:23:02.426Z,75.18
2022-08-26T09:24:02.625Z,75.27
2022-08-26T09:25:02.585Z,74.68
2022-08-26T09:26:02.778Z,74.58
2022-08-26T09:27:02.924Z,74.38
2022-08-26T09:28:02.899Z,74.48
2022-08-26T09:29:02.763Z,74.78
2022-08-26T09:30:03.224Z,75.27
2022-08-26T09:31:05.717Z,75.38
2022-08-26T09:32:02.638Z,74.98
2022-08-26T09:33:02.836Z,75.08
2022-08-26T09:34:02.483Z,75.08
2022-08-26T09:35:02.310Z,75.08
2022-08-26T09:36:02.625Z,75.08
2022-08-26T09:37:04.696Z,75.18
2022-08-26T09:38:02.512Z,75.27
2022-08-26T09:39:02.651Z,74.78
2022-08-26T09:40:02.650Z,74.38
2022-08-26T09:41:02.854Z,74.29
2022-08-26T09:42:02.894Z,74.38
2022-08-26T09:43:02.944Z,75.08
2022-08-26T09:44:02.739Z,74.88
2022-08-26T09:45:02.556Z,74.58
2022-08-26T09:46:02.801Z,74.38
2022-08-26T09:47:03.287Z,74.68
2022-08-26T09:48:02.748Z,74.78
2022-08-26T09:49:02.768Z,73.99
2022-08-26T09:50:02.982Z,74.29
2022-08-26T09:51:03.201Z,74.88
2022-08-26T09:52:03.097Z,74.68
2022-08-26T09:53:02.918Z,74.38
2022-08-26T09:54:02.781Z,74.78
2022-08-26T09:55:03.470Z,74.88
2022-08-26T09:56:02.984Z,75.18
2022-08-26T09:57:02.820Z,74.84
2022-08-26T09:58:08.041Z,74.68
2022-08-26T09:59:02.961Z,74.68
2022-08-26T10:00:02.769Z,74.68
2022-08-26T10:01:03.023Z,74.78
2022-08-26T10:03:01.603Z,74.44
2022-08-26T10:04:01.931Z,74.74
2022-08-26T10:05:09.275Z,74.65
2022-08-26T10:06:02.117Z,73.95
2022-08-26T10:07:02.327Z,74.25
2022-08-26T10:08:01.878Z,74.58
2022-08-26T10:09:08.347Z,75.24
2022-08-26T10:10:01.983Z,74.84
2022-08-26T10:11:02.559Z,74.55
2022-08-26T10:12:03.019Z,74.65
2022-08-26T10:13:03.150Z,74.44
2022-08-26T10:14:03.011Z,74.98
2022-08-26T10:15:03.259Z,74.48
2022-08-26T10:16:02.577Z,74.78
2022-08-26T10:17:02.560Z,74.08
2022-08-26T10:18:01.989Z,74.98
2022-08-26T10:19:02.254Z,75.18
2022-08-26T10:20:02.456Z,74.48
2022-08-26T10:21:02.135Z,75.01
2022-08-26T10:22:02.596Z,75.41
2022-08-26T10:23:02.772Z,75.31
2022-08-26T10:24:02.466Z,75.21
2022-08-26T10:25:02.792Z,75.91
2022-08-26T10:26:02.241Z,75.71
2022-08-26T10:27:03.093Z,75.57
2022-08-26T10:28:02.932Z,75.27
2022-08-26T10:29:03.130Z,75.67
2022-08-26T10:30:02.978Z,75.48
2022-08-26T10:31:02.653Z,75.27
2022-08-26T10:32:02.698Z,75.38
2022-08-26T10:33:02.307Z,74.68
2022-08-26T10:34:01.898Z,74.58
2022-08-26T10:35:01.980Z,74.98
2022-08-26T10:36:02.138Z,75.67
2022-08-26T10:37:14.932Z,75.38
2022-08-26T10:38:02.551Z,74.98
2022-08-26T10:39:02.370Z,74.38
2022-08-26T10:40:02.608Z,74.91
2022-08-26T10:41:02.392Z,75.41
2022-08-26T10:42:03.142Z,75.12
2022-08-26T10:43:07.184Z,75.61
2022-08-26T10:44:02.657Z,75.21
2022-08-26T10:45:02.939Z,75.31
2022-08-26T10:46:02.828Z,75.12
2022-08-26T10:47:03.379Z,75.61
2022-08-26T10:48:03.148Z,75.12
2022-08-26T10:49:03.383Z,75.12
2022-08-26T10:50:03.642Z,76.01
2022-08-26T10:51:03.020Z,75.31
2022-08-26T10:52:02.899Z,75.91
2022-08-26T10:53:02.334Z,75.81
2022-08-26T10:54:03.281Z,76.01
2022-08-26T10:55:03.153Z,76.01
2022-08-26T10:56:02.863Z,75.51
2022-08-26T10:57:03.226Z,75.12
2022-08-26T10:58:05.451Z,75.71
2022-08-26T10:59:02.655Z,75.84
2022-08-26T11:00:03.135Z,76.44
2022-08-26T11:01:02.687Z,76.04
2022-08-26T11:02:03.795Z,76.25
2022-08-26T11:03:02.653Z,76.40
2022-08-26T11:04:02.704Z,76.01
2022-08-26T11:05:02.663Z,75.71
2022-08-26T11:06:03.291Z,75.31
2022-08-26T11:07:02.228Z,75.81
2022-08-26T11:08:02.610Z,75.91
2022-08-26T11:09:02.835Z,75.81
2022-08-26T11:10:02.608Z,75.91
2022-08-26T11:11:02.861Z,75.61
2022-08-26T11:12:06.769Z,75.61
2022-08-26T11:13:02.782Z,75.51
2022-08-26T11:14:02.915Z,75.31
2022-08-26T11:15:02.626Z,75.61
2022-08-26T11:16:02.761Z,75.51
2022-08-26T11:17:02.869Z,75.61
2022-08-26T11:18:02.956Z,75.51
2022-08-26T11:19:02.975Z,75.81
2022-08-26T11:20:07.409Z,75.51
2022-08-26T11:21:03.238Z,75.61
2022-08-26T11:22:03.163Z,75.61
2022-08-26T11:23:02.639Z,75.41
2022-08-26T11:24:02.575Z,74.91
2022-08-26T11:25:02.604Z,74.91
2022-08-26T11:26:02.617Z,74.82
2022-08-26T11:27:02.804Z,75.12
2022-08-26T11:28:03.496Z,74.72
2022-08-26T11:29:03.604Z,74.91
2022-08-26T11:30:03.459Z,74.72
2022-08-26T11:31:03.314Z,74.72
2022-08-26T11:32:03.183Z,74.62
2022-08-26T11:33:02.569Z,74.32
2022-08-26T11:34:02.756Z,74.12
2022-08-26T11:35:02.817Z,74.72
2022-08-26T11:36:07.400Z,74.82
2022-08-26T11:37:02.415Z,74.32
2022-08-26T11:38:04.234Z,74.52
2022-08-26T11:39:03.291Z,73.99
2022-08-26T11:40:03.903Z,74.88
2022-08-26T11:41:03.351Z,73.79
2022-08-26T11:42:03.500Z,74.19
2022-08-26T11:43:02.756Z,74.08
2022-08-26T11:44:02.699Z,74.68
2022-08-26T11:45:05.632Z,73.69
2022-08-26T11:46:03.012Z,73.49
2022-08-26T11:47:03.132Z,73.69
2022-08-26T11:48:02.899Z,74.29
2022-08-26T11:49:03.130Z,74.19
2022-08-26T11:50:03.184Z,74.38
2022-08-26T11:51:03.387Z,73.99
2022-08-26T11:52:03.171Z,73.59
2022-08-26T11:53:03.093Z,74.08
2022-08-26T11:54:03.132Z,73.79
2022-08-26T11:55:02.748Z,74.19
2022-08-26T11:56:02.884Z,73.79
2022-08-26T11:57:07.326Z,73.89
2022-08-26T11:58:04.880Z,73.59
2022-08-26T11:59:03.166Z,74.19
2022-08-26T12:00:03.239Z,74.55
2022-08-26T12:01:03.811Z,74.05
2022-08-26T12:02:03.747Z,73.85
2022-08-26T12:03:02.972Z,74.05
2022-08-26T12:04:03.202Z,74.25
2022-08-26T12:05:03.097Z,73.16
2022-08-26T12:06:02.842Z,72.96
2022-08-26T12:07:03.438Z,73.46
2022-08-26T12:08:03.053Z,73.32
2022-08-26T12:09:02.758Z,73.82
2022-08-26T12:10:02.499Z,73.82
2022-08-26T12:11:02.775Z,73.42
2022-08-26T12:12:02.650Z,73.58
2022-08-26T12:13:03.188Z,73.09
2022-08-26T12:14:02.899Z,72.00
2022-08-26T12:15:02.889Z,72.60
2022-08-26T12:16:03.527Z,72.89
2022-08-26T12:17:03.282Z,71.70
2022-08-26T12:18:02.930Z,71.31
2022-08-26T12:19:02.878Z,71.70
2022-08-26T12:20:02.705Z,71.41
2022-08-26T12:21:02.621Z,71.08
2022-08-26T12:22:02.747Z,71.27
2022-08-26T12:23:03.470Z,71.27
2022-08-26T12:24:03.513Z,71.86
2022-08-26T12:25:03.088Z,70.87
2022-08-26T12:26:03.212Z,70.38
2022-08-26T12:27:03.686Z,70.97
2022-08-26T12:28:03.169Z,71.17
2022-08-26T12:29:20.312Z,70.28
2022-08-26T12:30:03.388Z,70.97
2022-08-26T12:31:03.404Z,70.28
2022-08-26T12:32:03.412Z,70.08
2022-08-26T12:33:02.829Z,70.08
2022-08-26T12:34:02.827Z,70.51
2022-08-26T12:35:07.732Z,71.41
2022-08-26T12:36:02.902Z,71.77
2022-08-26T12:37:02.353Z,70.51
2022-08-26T12:38:02.981Z,70.71
2022-08-26T12:39:03.492Z,70.91
2022-08-26T12:40:03.413Z,71.01
2022-08-26T12:41:03.396Z,70.81
2022-08-26T12:42:03.115Z,71.41
2022-08-26T12:43:03.301Z,71.77
2022-08-26T12:44:03.318Z,71.47
2022-08-26T12:45:03.477Z,70.57
2022-08-26T12:46:03.661Z,70.78
2022-08-26T12:47:03.766Z,70.48
2022-08-26T12:48:03.108Z,70.18
2022-08-26T12:49:03.128Z,70.78
2022-08-26T12:50:02.960Z,70.48
2022-08-26T12:51:02.860Z,70.94
2022-08-26T12:52:02.693Z,70.54
2022-08-26T12:53:02.990Z,69.75